Time;durP1;ratioP1;P1;durP2;ratioP2;P2;SDS_P1;SDS_P2;PMS_P1;PMS_P2;Temp;Humidity;BMP_temperature;BMP_pressure;BME280_temperature;BME280_humidity;BME280_pressure;Samples;Min_cycle;Max_cycle;Signal;HPM_P1;HPM_P2
2023/06/24 00:01:26;;;;;;;7.30;5.70;;;;;;;26.51;73.13;100491.45;107963;1286;21987;-61
2023/06/24 00:03:53;;;;;;;10.60;6.80;;;;;;;26.50;73.44;100488.42;108116;1282;21985;-62
2023/06/24 00:06:22;;;;;;;7.80;6.30;;;;;;;26.49;73.33;100487.64;108123;1283;22023;-69
2023/06/24 00:08:48;;;;;;;10.20;6.90;;;;;;;26.48;73.05;100488.11;108156;1282;21994;-76
2023/06/24 00:11:14;;;;;;;8.00;6.80;;;;;;;26.48;73.28;100487.36;108162;1277;21987;-76
2023/06/24 00:13:40;;;;;;;9.60;6.40;;;;;;;26.48;73.45;100487.20;108093;1283;21997;-75
2023/06/24 00:16:06;;;;;;;10.00;6.60;;;;;;;26.48;73.61;100487.90;108114;1282;21981;-61
2023/06/24 00:18:33;;;;;;;7.00;6.10;;;;;;;26.47;73.24;100487.27;108125;1283;22023;-74
2023/06/24 00:20:58;;;;;;;7.30;5.80;;;;;;;26.45;74.01;100489.02;108121;1277;21991;-74
2023/06/24 00:23:24;;;;;;;9.20;6.60;;;;;;;26.43;73.73;100489.49;107876;1281;22002;-75
2023/06/24 00:25:52;;;;;;;8.80;6.40;;;;;;;26.42;74.42;100486.38;108063;1286;21992;-75
2023/06/24 00:28:17;;;;;;;9.20;6.40;;;;;;;26.39;73.86;100481.89;108122;1283;21995;-61
2023/06/24 00:30:44;;;;;;;7.60;5.90;;;;;;;26.39;73.32;100481.20;108091;1287;22465;-76
2023/06/24 00:33:11;;;;;;;8.10;6.20;;;;;;;26.38;73.52;100481.64;108140;1283;22091;-61
2023/06/24 00:35:37;;;;;;;7.90;6.40;;;;;;;26.37;73.05;100477.20;108057;1288;22011;-60
2023/06/24 00:38:03;;;;;;;7.90;6.30;;;;;;;26.36;73.43;100478.00;108078;1288;21994;-73
2023/06/24 00:40:29;;;;;;;6.70;5.60;;;;;;;26.34;73.38;100481.23;108072;1282;22132;-73
2023/06/24 00:42:55;;;;;;;9.30;5.90;;;;;;;26.30;73.54;100485.98;108045;1277;21991;-74
2023/06/24 00:45:20;;;;;;;7.50;6.40;;;;;;;26.27;73.30;100483.52;108147;1276;21998;-73
2023/06/24 00:47:46;;;;;;;8.20;6.40;;;;;;;26.24;73.65;100483.56;108034;1278;21990;-72
2023/06/24 00:50:12;;;;;;;9.40;6.60;;;;;;;26.22;74.04;100482.34;108071;1286;21985;-59
2023/06/24 00:52:42;;;;;;;7.90;6.10;;;;;;;26.19;73.66;100478.79;108080;1286;21989;-69
2023/06/24 00:55:09;;;;;;;7.20;6.00;;;;;;;26.18;74.03;100480.45;108044;1288;21986;-70
2023/06/24 00:57:37;;;;;;;7.70;6.10;;;;;;;26.16;74.65;100483.86;108099;1288;21999;-72
2023/06/24 01:00:08;;;;;;;7.10;6.30;;;;;;;26.12;74.70;100482.52;107874;1288;22019;-59
2023/06/24 01:02:36;;;;;;;7.10;6.20;;;;;;;26.09;74.20;100480.92;108083;1288;21979;-72
2023/06/24 01:05:03;;;;;;;9.00;6.50;;;;;;;26.08;74.43;100482.97;107918;1286;22446;-73
2023/06/24 01:07:29;;;;;;;10.70;6.10;;;;;;;26.07;74.32;100485.02;108088;1283;22000;-60
2023/06/24 01:09:56;;;;;;;6.90;6.20;;;;;;;26.07;75.29;100484.13;107864;1282;21987;-60
2023/06/24 01:12:22;;;;;;;8.20;7.00;;;;;;;26.04;76.25;100480.91;108043;1283;22005;-72
2023/06/24 01:14:50;;;;;;;9.40;6.40;;;;;;;26.02;74.74;100478.58;108118;1288;21984;-71
2023/06/24 01:17:16;;;;;;;8.40;6.30;;;;;;;26.01;73.96;100478.98;107993;1286;21994;-60
2023/06/24 01:20:01;;;;;;;10.90;6.70;;;;;;;26.02;74.09;100474.27;108053;1283;21996;-70
2023/06/24 01:22:40;;;;;;;9.40;6.00;;;;;;;26.02;73.70;100473.90;108081;1286;21984;-69
2023/06/24 01:25:30;;;;;;;10.50;7.00;;;;;;;26.03;73.54;100476.91;108074;1287;21989;-70
2023/06/24 01:28:08;;;;;;;8.20;6.30;;;;;;;26.04;73.30;100480.17;108110;1286;21994;-69
2023/06/24 01:31:14;;;;;;;7.80;6.70;;;;;;;26.07;73.70;100476.41;108108;1276;21997;-60
2023/06/24 01:34:07;;;;;;;7.10;6.40;;;;;;;26.06;73.73;100476.66;108095;1287;22022;-69
2023/06/24 01:36:34;;;;;;;11.70;6.50;;;;;;;25.98;74.01;100478.89;108038;1287;21996;-59
2023/06/24 01:39:04;;;;;;;9.30;6.20;;;;;;;25.96;73.71;100479.88;108050;1286;22168;-60
2023/06/24 01:41:40;;;;;;;;;;;;;;;25.97;73.36;100484.17;108130;1282;21982;-70
2023/06/24 01:44:05;;;;;;;9.20;6.10;;;;;;;25.96;73.55;100484.58;108138;1286;22197;-69
2023/06/24 01:46:31;;;;;;;13.40;6.90;;;;;;;25.91;73.33;100483.52;107849;1287;22069;-59
2023/06/24 01:48:59;;;;;;;8.00;6.60;;;;;;;25.88;73.61;100482.72;108078;1276;22003;-68
2023/06/24 01:51:25;;;;;;;8.70;6.00;;;;;;;25.82;73.39;100487.98;107919;1286;21989;-69
2023/06/24 01:54:03;;;;;;;11.20;7.00;;;;;;;25.80;73.58;100490.62;107710;1287;21995;-62
2023/06/24 01:56:29;;;;;;;10.80;6.80;;;;;;;25.80;73.50;100490.66;108139;1276;21986;-60
2023/06/24 01:58:56;;;;;;;9.70;7.00;;;;;;;25.81;73.50;100488.05;107988;1287;21957;-68
2023/06/24 02:01:22;;;;;;;10.20;8.10;;;;;;;25.84;73.29;100487.29;108193;1287;21992;-62
2023/06/24 02:03:47;;;;;;;13.20;8.50;;;;;;;25.87;72.94;100493.19;108010;1287;21982;-68
2023/06/24 02:06:13;;;;;;;14.80;9.30;;;;;;;25.89;72.84;100497.73;107992;1287;22003;-60
2023/06/24 02:08:40;;;;;;;18.80;11.40;;;;;;;25.89;72.69;100498.77;107985;1286;21994;-60
2023/06/24 02:11:06;;;;;;;20.60;12.00;;;;;;;25.88;72.76;100495.28;108153;1283;22040;-69
2023/06/24 02:13:35;;;;;;;21.50;11.90;;;;;;;25.85;72.76;100495.64;107969;1279;22004;-60
2023/06/24 02:16:02;;;;;;;30.10;14.60;;;;;;;25.84;72.81;100494.83;108153;1284;22032;-60
2023/06/24 02:18:28;;;;;;;27.90;14.70;;;;;;;25.82;72.98;100495.14;108041;1283;21989;-69
2023/06/24 02:20:55;;;;;;;37.80;17.30;;;;;;;25.79;73.12;100496.97;108089;1276;21990;-68
2023/06/24 02:23:20;;;;;;;23.90;13.10;;;;;;;25.78;73.33;100501.41;108091;1277;21986;-60
2023/06/24 02:25:46;;;;;;;24.40;12.80;;;;;;;25.76;73.53;100503.15;108078;1286;21983;-60
2023/06/24 02:28:12;;;;;;;20.60;12.40;;;;;;;25.75;74.45;100506.09;107872;1288;21989;-60
2023/06/24 02:30:38;;;;;;;21.10;11.40;;;;;;;25.75;74.03;100506.11;108136;1287;21995;-60
2023/06/24 02:33:04;;;;;;;19.40;11.60;;;;;;;25.75;74.02;100507.52;108103;1277;21990;-60
2023/06/24 02:35:31;;;;;;;18.60;11.80;;;;;;;25.76;74.28;100508.76;107918;1282;21988;-71
2023/06/24 02:37:56;;;;;;;17.50;11.40;;;;;;;25.78;74.39;100508.38;107544;1282;397497;-68
2023/06/24 02:40:22;;;;;;;24.50;11.60;;;;;;;25.79;74.67;100505.77;107891;1287;21986;-59
2023/06/24 02:42:48;;;;;;;20.30;11.80;;;;;;;25.82;75.01;100503.59;108124;1280;21993;-65
2023/06/24 02:45:13;;;;;;;24.20;13.10;;;;;;;25.84;75.34;100503.84;108144;1283;21995;-60
2023/06/24 02:47:40;;;;;;;26.40;14.80;;;;;;;25.84;75.64;100506.48;107663;1287;21989;-61
2023/06/24 02:50:07;;;;;;;28.60;17.80;;;;;;;25.84;75.76;100504.13;108140;1283;22448;-68
2023/06/24 02:52:33;;;;;;;36.50;18.70;;;;;;;25.87;75.93;100506.50;108180;1274;22019;-68
2023/06/24 02:54:58;;;;;;;37.30;20.00;;;;;;;25.89;76.23;100506.69;107869;1280;21984;-61
2023/06/24 02:57:25;;;;;;;43.50;20.70;;;;;;;25.92;76.75;100499.60;107825;1287;22020;-61
2023/06/24 02:59:51;;;;;;;35.30;19.90;;;;;;;25.96;76.97;100499.34;108116;1276;22018;-71
2023/06/24 03:02:17;;;;;;;34.20;19.00;;;;;;;25.99;77.25;100501.05;107872;1287;21988;-68
2023/06/24 03:04:42;;;;;;;35.90;19.50;;;;;;;26.05;77.91;100506.77;108132;1276;21995;-60
2023/06/24 03:07:11;;;;;;;35.80;18.60;;;;;;;26.10;79.73;100504.39;108137;1287;21996;-71
2023/06/24 03:09:37;;;;;;;34.90;19.10;;;;;;;26.14;78.69;100504.65;108145;1281;21984;-61
2023/06/24 03:12:03;;;;;;;29.80;17.10;;;;;;;26.20;78.66;100503.17;108134;1282;21949;-69
2023/06/24 03:14:28;;;;;;;31.90;17.60;;;;;;;26.26;79.27;100504.48;108152;1287;21981;-62
2023/06/24 03:16:54;;;;;;;29.20;17.00;;;;;;;26.31;80.08;100505.38;108134;1284;22046;-60
2023/06/24 03:19:20;;;;;;;37.80;20.50;;;;;;;26.35;80.53;100508.29;108094;1283;22001;-61
2023/06/24 03:21:46;;;;;;;39.90;21.70;;;;;;;26.37;82.43;100515.48;108116;1286;21999;-60
2023/06/24 03:24:14;;;;;;;38.70;23.10;;;;;;;26.41;81.65;100512.50;108118;1287;21997;-62
2023/06/24 03:26:40;;;;;;;49.90;25.60;;;;;;;26.47;82.11;100512.63;108131;1280;21985;-69
2023/06/24 03:29:07;;;;;;;63.10;30.20;;;;;;;26.52;81.89;100510.98;108084;1280;22290;-66
2023/06/24 03:31:33;;;;;;;58.90;32.30;;;;;;;26.56;81.49;100512.21;108079;1287;21992;-60
2023/06/24 03:33:58;;;;;;;67.50;36.20;;;;;;;26.62;83.51;100504.23;108111;1283;21996;-70
2023/06/24 03:36:25;;;;;;;70.40;35.90;;;;;;;26.66;83.79;100503.05;108085;1283;21990;-60
2023/06/24 03:38:51;;;;;;;67.80;35.00;;;;;;;26.69;83.72;100498.14;108120;1283;21990;-62
2023/06/24 03:41:16;;;;;;;63.80;31.50;;;;;;;26.72;83.00;100495.84;108130;1287;21979;-61
2023/06/24 03:43:43;;;;;;;65.30;31.60;;;;;;;26.76;85.28;100502.41;108132;1280;21984;-62
2023/06/24 03:46:09;;;;;;;64.50;33.10;;;;;;;26.80;83.93;100506.06;108105;1286;21981;-71
2023/06/24 03:48:35;;;;;;;73.50;34.80;;;;;;;26.85;84.88;100503.02;108119;1277;21984;-60
2023/06/24 03:51:00;;;;;;;86.10;40.30;;;;;;;26.90;85.16;100500.13;108131;1281;21986;-71
2023/06/24 03:53:27;;;;;;;80.80;42.30;;;;;;;26.94;87.48;100496.21;108120;1287;22019;-61
2023/06/24 03:55:52;;;;;;;90.60;42.40;;;;;;;26.98;86.28;100489.92;108160;1283;22023;-60
2023/06/24 03:58:20;;;;;;;79.90;37.40;;;;;;;27.04;87.74;100486.41;108124;1280;21964;-60
2023/06/24 04:00:49;;;;;;;65.90;34.10;;;;;;;27.11;86.82;100490.91;108143;1286;21983;-70
2023/06/24 04:03:18;;;;;;;56.40;28.00;;;;;;;27.19;86.56;100495.78;108128;1283;22088;-60
2023/06/24 04:05:44;;;;;;;53.90;29.30;;;;;;;27.29;86.32;100505.83;108183;1281;23046;-60
2023/06/24 04:08:10;;;;;;;51.00;26.90;;;;;;;27.30;88.11;100509.54;108177;1281;21981;-69
2023/06/24 04:10:36;;;;;;;50.80;27.00;;;;;;;27.40;86.49;100522.41;108139;1283;21987;-60
2023/06/24 04:13:02;;;;;;;35.00;21.80;;;;;;;27.60;86.30;100526.95;108126;1287;21992;-60
2023/06/24 04:15:28;;;;;;;28.80;17.20;;;;;;;27.73;86.17;100520.35;108111;1287;22003;-61
2023/06/24 04:17:53;;;;;;;13.90;10.50;;;;;;;27.83;84.72;100517.17;108162;1276;21991;-68
2023/06/24 04:20:19;;;;;;;13.40;9.20;;;;;;;27.88;84.58;100515.13;108103;1283;21987;-61
2023/06/24 04:22:45;;;;;;;10.10;8.60;;;;;;;27.89;84.87;100516.11;108145;1286;22004;-60
2023/06/24 04:25:11;;;;;;;16.40;9.30;;;;;;;27.91;83.94;100512.70;108127;1287;21990;-61
2023/06/24 04:27:37;;;;;;;9.70;7.90;;;;;;;27.96;83.96;100508.88;108242;1277;21992;-72
2023/06/24 04:30:03;;;;;;;12.00;7.40;;;;;;;28.01;83.21;100506.60;108204;1283;22176;-62
2023/06/24 04:32:29;;;;;;;10.80;7.50;;;;;;;28.08;85.01;100505.02;108145;1287;21988;-70
2023/06/24 04:34:55;;;;;;;12.90;7.00;;;;;;;28.17;83.67;100508.06;108061;1283;21988;-71
2023/06/24 04:37:20;;;;;;;11.00;6.90;;;;;;;28.26;83.48;100508.17;108140;1287;21998;-75
2023/06/24 04:39:47;;;;;;;9.10;7.00;;;;;;;28.38;83.06;100507.16;108192;1276;22004;-73
2023/06/24 04:42:14;;;;;;;7.90;7.10;;;;;;;28.49;83.39;100505.15;108117;1287;21987;-68
2023/06/24 04:44:40;;;;;;;9.90;7.00;;;;;;;28.61;82.62;100511.34;108053;1276;22097;-62
2023/06/24 04:47:06;;;;;;;12.30;7.20;;;;;;;28.76;82.37;100512.65;108118;1281;21989;-72
2023/06/24 04:49:31;;;;;;;9.30;7.30;;;;;;;28.88;81.83;100508.15;108139;1276;21992;-73
2023/06/24 04:52:00;;;;;;;7.60;6.80;;;;;;;28.96;81.57;100502.70;108147;1287;21993;-61
2023/06/24 04:54:26;;;;;;;9.90;6.90;;;;;;;29.04;80.68;100501.88;108180;1287;22003;-73
2023/06/24 04:56:55;;;;;;;8.90;7.20;;;;;;;29.03;80.59;100494.73;108118;1283;23104;-61
2023/06/24 04:59:21;;;;;;;9.90;6.40;;;;;;;29.19;79.60;100483.77;108300;1286;22480;-75
2023/06/24 05:01:47;;;;;;;11.40;7.60;;;;;;;29.33;79.69;100479.45;108151;1277;22025;-73
2023/06/24 05:04:12;;;;;;;13.50;6.90;;;;;;;29.44;78.83;100480.09;108116;1277;22451;-73
2023/06/24 05:06:38;;;;;;;14.30;6.80;;;;;;;29.51;78.83;100477.60;108111;1277;21993;-61
2023/06/24 05:09:04;;;;;;;12.00;9.30;;;;;;;29.67;78.49;100468.22;108122;1283;21996;-61
2023/06/24 05:11:30;;;;;;;9.30;6.40;;;;;;;29.84;77.52;100470.02;108113;1283;21983;-62
2023/06/24 05:13:56;;;;;;;10.00;6.40;;;;;;;29.94;75.69;100477.15;108153;1287;22021;-62
2023/06/24 05:16:23;;;;;;;10.90;6.80;;;;;;;30.01;75.35;100478.34;108171;1287;21987;-62
2023/06/24 05:18:50;;;;;;;14.40;6.90;;;;;;;30.10;75.13;100478.23;108123;1283;21999;-73
2023/06/24 05:21:16;;;;;;;8.00;6.50;;;;;;;30.20;74.60;100473.52;108143;1277;21992;-72
2023/06/24 05:23:41;;;;;;;8.70;6.10;;;;;;;30.33;73.36;100474.65;108164;1277;21994;-73
2023/06/24 05:26:07;;;;;;;8.60;6.20;;;;;;;30.41;71.68;100473.16;108090;1286;21988;-73
2023/06/24 05:28:33;;;;;;;24.00;8.00;;;;;;;30.50;70.67;100473.21;108103;1287;21988;-63
2023/06/24 05:30:59;;;;;;;16.70;7.80;;;;;;;30.60;69.82;100467.07;108112;1280;22091;-62
2023/06/24 05:33:24;;;;;;;8.40;5.80;;;;;;;30.76;69.37;100455.58;107853;1284;22028;-62
2023/06/24 05:35:50;;;;;;;6.50;5.70;;;;;;;30.90;68.18;100453.38;108138;1286;21990;-63
2023/06/24 05:38:16;;;;;;;7.90;6.10;;;;;;;31.02;67.56;100455.54;108239;1287;21976;-64
2023/06/24 05:40:42;;;;;;;10.20;6.00;;;;;;;31.15;66.93;100454.54;108102;1283;21997;-63
2023/06/24 05:43:08;;;;;;;8.40;5.90;;;;;;;31.29;65.71;100447.22;108028;1286;22001;-73
2023/06/24 05:45:33;;;;;;;7.00;5.70;;;;;;;31.46;65.48;100434.31;108129;1287;21984;-71
2023/06/24 05:47:59;;;;;;;7.80;5.80;;;;;;;31.60;64.71;100428.58;108074;1286;22631;-63
2023/06/24 05:50:25;;;;;;;6.20;5.20;;;;;;;31.77;63.66;100428.65;108144;1287;21992;-73
2023/06/24 05:52:51;;;;;;;8.60;5.50;;;;;;;31.92;62.77;100426.57;108102;1287;21996;-62
2023/06/24 05:55:17;;;;;;;7.90;5.20;;;;;;;32.03;61.58;100425.88;108093;1283;22470;-62
2023/06/24 05:57:43;;;;;;;8.40;5.60;;;;;;;32.14;60.61;100425.84;108140;1286;21992;-64
2023/06/24 06:00:09;;;;;;;10.60;5.90;;;;;;;32.28;58.83;100424.04;108116;1277;22005;-62
2023/06/24 06:02:36;;;;;;;33.90;6.60;;;;;;;32.49;59.54;100420.66;108177;1287;21989;-73
2023/06/24 06:05:02;;;;;;;6.10;5.00;;;;;;;32.63;57.99;100419.52;108127;1286;21984;-62
2023/06/24 06:07:28;;;;;;;10.50;5.40;;;;;;;32.72;57.73;100420.15;108129;1276;22449;-73
2023/06/24 06:09:54;;;;;;;6.90;5.30;;;;;;;32.86;57.46;100425.66;108134;1283;21985;-71
2023/06/24 06:12:19;;;;;;;7.70;5.60;;;;;;;32.96;56.94;100423.27;108112;1286;21990;-62
2023/06/24 06:14:45;;;;;;;8.90;5.60;;;;;;;33.07;56.03;100427.28;108137;1283;21993;-62
2023/06/24 06:17:12;;;;;;;10.60;5.40;;;;;;;33.20;56.09;100427.32;108183;1283;21987;-73
2023/06/24 06:19:41;;;;;;;11.60;5.80;;;;;;;33.36;56.06;100428.83;108200;1286;22012;-72
2023/06/24 06:22:07;;;;;;;6.80;5.40;;;;;;;33.52;55.14;100433.21;108131;1283;21987;-62
2023/06/24 06:24:33;;;;;;;9.30;5.90;;;;;;;33.66;52.85;100433.61;108153;1287;21992;-74
2023/06/24 06:26:59;;;;;;;8.50;5.20;;;;;;;33.82;53.59;100433.17;108099;1286;21993;-74
2023/06/24 06:29:25;;;;;;;8.80;5.90;;;;;;;33.98;53.01;100431.63;108113;1287;21996;-62
2023/06/24 06:31:52;;;;;;;8.00;5.40;;;;;;;34.14;53.49;100427.35;108112;1277;22001;-75
2023/06/24 06:34:18;;;;;;;7.80;5.70;;;;;;;34.28;52.90;100427.14;108110;1286;21998;-75
2023/06/24 06:36:44;;;;;;;9.20;6.00;;;;;;;34.45;53.15;100428.95;108152;1283;21990;-63
2023/06/24 06:39:09;;;;;;;6.60;5.40;;;;;;;34.57;52.31;100428.51;108171;1288;21986;-62
2023/06/24 06:41:35;;;;;;;9.10;6.30;;;;;;;34.65;49.74;100427.21;108105;1288;22014;-74
2023/06/24 06:44:01;;;;;;;7.00;5.50;;;;;;;34.76;48.39;100428.39;108110;1276;21984;-69
2023/06/24 06:46:27;;;;;;;12.40;5.50;;;;;;;34.92;48.91;100422.89;108125;1286;22063;-75
2023/06/24 06:48:52;;;;;;;7.60;5.40;;;;;;;35.05;47.40;100417.38;108155;1286;21990;-73
2023/06/24 06:51:21;;;;;;;9.00;5.80;;;;;;;35.17;47.41;100416.25;108152;1283;21986;-62
2023/06/24 06:53:46;;;;;;;11.30;7.90;;;;;;;35.30;48.30;100411.76;108165;1287;21985;-74
2023/06/24 06:56:20;;;;;;;13.30;8.80;;;;;;;35.44;49.12;100413.11;108074;1283;21986;-75
2023/06/24 06:58:46;;;;;;;11.50;8.00;;;;;;;35.59;48.52;100416.23;108136;1287;22008;-63
2023/06/24 07:01:12;;;;;;;13.40;7.70;;;;;;;35.73;48.42;100424.30;108111;1287;21996;-74
2023/06/24 07:12:58;;;;;;;10.90;6.70;;;;;;;33.02;56.48;100427.05;107554;1292;549849;-63
2023/06/24 07:15:25;;;;;;;11.80;6.40;;;;;;;35.39;46.63;100419.81;107747;1292;22039;-62
2023/06/24 07:17:51;;;;;;;10.10;6.00;;;;;;;35.77;45.24;100424.00;107507;1295;21995;-62
2023/06/24 07:22:21;;;;;;;11.20;5.30;;;;;;;35.54;45.73;100432.46;107539;1292;550078;-74
2023/06/24 07:24:46;;;;;;;6.90;5.00;;;;;;;36.33;43.32;100430.45;107765;1294;21999;-73
2023/06/24 07:27:12;;;;;;;8.00;4.90;;;;;;;36.51;43.26;100433.17;107756;1290;21959;-64
2023/06/24 07:29:38;;;;;;;5.60;5.00;;;;;;;36.69;43.96;100436.52;107880;1294;21996;-64
2023/06/24 07:32:04;;;;;;;7.10;5.20;;;;;;;36.76;42.57;100437.92;107875;1294;22005;-62
2023/06/24 07:34:30;;;;;;;8.40;5.30;;;;;;;36.87;40.87;100437.95;107662;1292;260066;-69
2023/06/24 07:36:57;;;;;;;7.10;5.20;;;;;;;36.97;40.89;100437.29;107951;1292;21989;-76
2023/06/24 07:39:22;;;;;;;7.40;5.10;;;;;;;37.03;39.54;100443.54;108048;1291;22001;-62
2023/06/24 07:41:48;;;;;;;10.00;5.80;;;;;;;37.14;40.24;100452.93;107930;1290;22003;-75
2023/06/24 07:44:14;;;;;;;6.90;5.20;;;;;;;37.32;40.55;100454.07;107826;1293;22957;-63
2023/06/24 07:46:40;;;;;;;10.10;5.40;;;;;;;37.43;39.65;100455.35;107822;1287;21990;-62
2023/06/24 07:49:06;;;;;;;7.00;5.50;;;;;;;37.52;38.43;100461.61;107791;1287;21992;-76
2023/06/24 07:51:33;;;;;;;6.50;5.10;;;;;;;37.54;39.41;100459.36;107872;1284;22216;-64
2023/06/24 07:53:59;;;;;;;5.50;4.90;;;;;;;37.54;39.72;100456.20;107877;1286;22158;-62
2023/06/24 07:56:24;;;;;;;6.20;5.20;;;;;;;37.51;37.71;100458.88;107767;1287;22002;-63
2023/06/24 07:58:53;;;;;;;11.60;5.60;;;;;;;37.60;38.68;100463.93;107768;1290;21997;-63
2023/06/24 08:01:18;;;;;;;11.60;5.20;;;;;;;37.75;39.43;100466.38;107868;1284;21997;-63
2023/06/24 08:03:44;;;;;;;7.20;5.70;;;;;;;37.78;38.51;100459.80;107789;1281;21992;-62
2023/06/24 08:06:09;;;;;;;11.90;5.30;;;;;;;37.71;36.51;100458.48;107849;1280;21995;-75
2023/06/24 08:08:35;;;;;;;5.90;4.30;;;;;;;37.75;35.41;100454.70;107807;1292;21999;-62
2023/06/24 08:11:02;;;;;;;6.10;5.00;;;;;;;37.78;35.35;100456.10;107932;1286;21992;-77
2023/06/24 08:13:28;;;;;;;7.20;4.70;;;;;;;37.90;35.74;100445.83;107951;1292;22022;-74
2023/06/24 08:15:54;;;;;;;7.30;4.80;;;;;;;37.97;36.41;100440.36;107793;1281;22002;-75
2023/06/24 08:18:19;;;;;;;10.80;5.40;;;;;;;38.09;36.65;100438.05;108030;1290;22002;-61
2023/06/24 08:20:45;;;;;;;7.80;5.10;;;;;;;38.36;36.75;100442.66;107913;1284;21994;-61
2023/06/24 08:23:11;;;;;;;9.30;5.20;;;;;;;38.60;36.72;100442.17;107982;1292;21997;-62
2023/06/24 08:25:36;;;;;;;8.90;4.70;;;;;;;38.76;35.98;100436.89;107843;1287;22022;-73
2023/06/24 08:28:02;;;;;;;5.90;4.80;;;;;;;38.87;35.44;100441.02;107792;1292;21996;-74
2023/06/24 08:30:28;;;;;;;8.50;5.10;;;;;;;39.01;34.78;100446.55;107756;1292;22009;-73
2023/06/24 08:32:54;;;;;;;9.30;4.90;;;;;;;39.09;34.83;100447.29;107785;1287;21995;-73
2023/06/24 08:35:19;;;;;;;6.80;5.00;;;;;;;39.11;35.40;100441.13;107830;1292;21986;-74
2023/06/24 08:37:45;;;;;;;10.00;5.20;;;;;;;39.23;35.35;100439.90;107904;1289;22007;-73
2023/06/24 08:40:11;;;;;;;8.50;4.80;;;;;;;39.27;34.62;100443.42;107760;1290;22026;-63
2023/06/24 08:42:37;;;;;;;7.10;5.00;;;;;;;39.35;34.32;100442.31;107778;1287;22007;-74
2023/06/24 08:45:04;;;;;;;7.50;5.20;;;;;;;39.37;33.56;100439.20;107747;1290;22182;-72
2023/06/24 08:47:30;;;;;;;8.80;5.10;;;;;;;39.42;33.81;100433.16;108271;1290;22075;-73
2023/06/24 08:50:18;;;;;;;8.40;5.00;;;;;;;39.57;34.20;100432.02;108303;1290;23663;-64
2023/06/24 08:53:08;;;;;;;8.50;4.90;;;;;;;39.72;33.86;100433.11;107916;1290;23045;-73
2023/06/24 08:55:36;;;;;;;7.50;4.80;;;;;;;39.91;34.09;100431.52;108121;1277;21990;-63
2023/06/24 08:58:04;;;;;;;7.00;5.00;;;;;;;40.09;33.70;100430.64;107791;1290;23622;-76
2023/06/24 09:00:30;;;;;;;9.80;5.50;;;;;;;40.21;33.41;100433.43;107580;1290;22847;-75
2023/06/24 09:02:56;;;;;;;7.90;4.80;;;;;;;40.31;33.12;100434.20;107709;1290;23822;-73
2023/06/24 09:05:21;;;;;;;7.40;5.40;;;;;;;40.36;32.80;100431.70;107774;1281;21997;-63
2023/06/24 09:07:48;;;;;;;5.80;5.10;;;;;;;40.43;33.45;100435.27;107766;1287;21990;-63
2023/06/24 09:10:35;;;;;;;8.00;5.10;;;;;;;40.36;31.90;100430.11;107809;1280;22048;-64
2023/06/24 09:13:01;;;;;;;7.00;4.80;;;;;;;40.35;33.05;100422.69;107600;1290;23742;-63
2023/06/24 09:15:32;;;;;;;7.00;4.70;;;;;;;40.41;32.30;100418.14;108190;1290;22033;-64
2023/06/24 09:17:59;;;;;;;8.20;5.10;;;;;;;40.61;32.52;100415.67;108233;1287;24343;-63
2023/06/24 09:20:25;;;;;;;5.30;4.70;;;;;;;40.87;32.63;100418.86;107800;1290;21989;-64
2023/06/24 09:22:50;;;;;;;8.70;4.60;;;;;;;40.96;31.53;100418.05;107692;1290;22004;-70
2023/06/24 09:25:18;;;;;;;6.90;4.50;;;;;;;40.87;31.23;100416.56;107736;1286;21985;-70
2023/06/24 09:27:50;;;;;;;8.30;6.00;;;;;;;40.77;31.05;100416.45;107796;1291;21965;-71
2023/06/24 09:30:19;;;;;;;14.20;5.70;;;;;;;40.75;31.50;100410.21;107802;1290;23815;-64
2023/06/24 09:32:47;;;;;;;5.50;4.90;;;;;;;40.80;31.72;100407.02;107781;1291;24346;-64
2023/06/24 09:35:13;;;;;;;7.40;4.80;;;;;;;40.79;30.73;100404.73;107825;1291;21989;-70
2023/06/24 09:37:39;;;;;;;6.20;4.40;;;;;;;40.85;31.09;100401.85;107811;1287;23764;-63
2023/06/24 09:40:06;;;;;;;8.00;5.30;;;;;;;40.91;30.80;100398.12;107770;1281;21988;-63
2023/06/24 09:42:31;;;;;;;6.30;4.80;;;;;;;41.18;30.08;100400.42;107763;1283;21992;-62
2023/06/24 09:44:57;;;;;;;7.60;4.70;;;;;;;41.38;30.28;100404.64;107795;1287;21992;-70
2023/06/24 09:47:25;;;;;;;5.30;4.20;;;;;;;41.33;30.26;100400.99;107774;1286;22027;-63
2023/06/24 09:49:52;;;;;;;15.20;4.40;;;;;;;41.40;30.51;100393.11;107868;1284;22009;-63
2023/06/24 09:52:18;;;;;;;5.80;4.50;;;;;;;41.51;29.60;100391.64;107838;1278;22000;-71
2023/06/24 09:54:44;;;;;;;5.20;4.70;;;;;;;41.59;28.40;100390.73;107838;1290;21988;-63
2023/06/24 09:57:09;;;;;;;5.80;4.50;;;;;;;41.66;28.24;100390.48;107716;1290;21989;-72
2023/06/24 09:59:35;;;;;;;5.30;4.70;;;;;;;41.69;28.21;100384.77;107712;1290;23653;-64
2023/06/24 10:02:01;;;;;;;7.30;4.80;;;;;;;41.60;27.88;100384.70;107848;1287;21990;-70
2023/06/24 10:04:27;;;;;;;8.10;4.70;;;;;;;41.57;27.85;100383.40;107814;1281;21988;-70
2023/06/24 10:06:53;;;;;;;7.30;4.50;;;;;;;41.45;27.88;100380.37;107918;1290;21995;-69
2023/06/24 10:09:19;;;;;;;6.70;4.50;;;;;;;41.48;28.72;100378.77;107877;1287;22000;-69
2023/06/24 10:11:45;;;;;;;8.60;4.30;;;;;;;41.49;27.32;100380.77;108077;1283;21991;-70
2023/06/24 10:14:11;;;;;;;8.50;4.70;;;;;;;41.52;28.14;100379.38;108095;1274;21991;-69
2023/06/24 10:16:37;;;;;;;5.10;4.60;;;;;;;41.67;28.75;100376.98;107904;1288;22451;-71
2023/06/24 10:19:03;;;;;;;4.90;4.40;;;;;;;41.83;28.38;100371.36;108103;1288;22000;-63
2023/06/24 10:21:51;;;;;;;8.30;4.70;;;;;;;41.75;27.98;100371.66;108140;1287;21997;-62
2023/06/24 10:24:39;;;;;;;10.90;4.90;;;;;;;41.77;28.56;100364.89;108124;1287;21998;-67
2023/06/24 10:27:21;;;;;;;6.20;4.60;;;;;;;41.95;28.14;100357.48;108109;1286;21985;-63
2023/06/24 10:29:48;;;;;;;5.20;4.50;;;;;;;42.05;27.61;100355.06;108067;1288;21991;-68
2023/06/24 10:32:14;;;;;;;7.90;4.90;;;;;;;42.04;28.03;100355.38;108078;1284;21988;-63
2023/06/24 10:34:41;;;;;;;9.30;5.10;;;;;;;42.00;27.58;100354.73;108078;1284;21998;-69
2023/06/24 10:37:07;;;;;;;4.90;4.40;;;;;;;42.10;27.89;100350.90;108123;1286;21995;-63
2023/06/24 10:39:44;;;;;;;6.30;5.00;;;;;;;42.31;27.50;100350.03;108076;1288;22452;-63
2023/06/24 10:42:29;;;;;;;6.90;4.60;;;;;;;42.49;27.64;100350.09;108074;1287;21987;-66
2023/06/24 10:44:59;;;;;;;6.60;4.50;;;;;;;42.62;27.17;100350.64;108060;1288;21985;-68
2023/06/24 10:47:26;;;;;;;6.40;4.70;;;;;;;42.69;27.39;100346.05;108101;1287;21992;-70
2023/06/24 10:49:51;;;;;;;8.10;5.00;;;;;;;42.76;27.05;100344.25;108181;1284;21987;-63
2023/06/24 10:52:23;;;;;;;5.60;4.60;;;;;;;42.78;26.99;100344.01;108108;1274;21987;-70
2023/06/24 10:54:50;;;;;;;5.60;4.80;;;;;;;42.69;27.37;100342.08;108093;1280;23081;-69
2023/06/24 10:57:15;;;;;;;6.40;4.80;;;;;;;42.79;27.78;100339.88;108055;1286;21985;-69
2023/06/24 10:59:47;;;;;;;7.80;4.40;;;;;;;43.02;27.38;100342.71;107949;1283;22936;-69
2023/06/24 11:02:14;;;;;;;5.00;4.40;;;;;;;43.06;26.91;100342.65;108102;1277;22077;-68
2023/06/24 11:04:48;;;;;;;5.80;5.00;;;;;;;43.20;26.80;100340.75;108107;1277;21986;-68
2023/06/24 11:07:14;;;;;;;5.50;4.70;;;;;;;43.15;27.04;100344.83;108113;1284;21995;-63
2023/06/24 11:09:40;;;;;;;9.70;4.70;;;;;;;43.08;26.28;100345.67;108091;1289;21996;-63
2023/06/24 11:12:08;;;;;;;6.40;4.60;;;;;;;43.12;26.31;100344.43;108089;1288;21986;-62
2023/06/24 11:14:36;;;;;;;9.50;5.20;;;;;;;43.03;25.56;100339.16;108113;1284;23831;-63
2023/06/24 11:17:03;;;;;;;6.10;4.40;;;;;;;42.87;26.13;100339.94;108086;1283;21990;-64
2023/06/24 11:19:30;;;;;;;8.10;4.90;;;;;;;42.87;26.78;100345.02;108104;1287;21986;-63
2023/06/24 11:21:59;;;;;;;5.50;4.20;;;;;;;42.92;26.80;100339.36;108146;1278;22000;-68
2023/06/24 11:24:25;;;;;;;8.10;4.70;;;;;;;42.96;26.72;100331.48;108111;1288;21991;-63